Time;durP1;ratioP1;P1;durP2;ratioP2;P2;SDS_P1;SDS_P2;PMS_P1;PMS_P2;Temp;Humidity;BMP_temperature;BMP_pressure;BME280_temperature;BME280_humidity;BME280_pressure;Samples;Min_cycle;Max_cycle;Signal;HPM_P1;HPM_P2
2024/01/30 06:25:43;;;;;;;;;;;;;;;8.11;70.57;98411.63;4260793;27;10324;-67
2024/01/30 06:27:45;;;;;;;;;;;;;;;8.41;69.79;98408.06;4240561;27;5743;-66
2024/01/30 06:29:49;;;;;;;;;;;;;;;8.62;69.40;98405.28;4247630;27;5758;-67
2024/01/30 06:31:51;;;;;;;;;;;;;;;8.82;69.09;98419.22;4247292;27;5820;-67
2024/01/30 06:33:54;;;;;;;;;;;;;;;8.95;68.56;98417.97;4248190;27;5772;-67
2024/01/30 06:35:57;;;;;;;;;;;;;;;9.06;68.16;98414.31;4247622;27;5640;-67
2024/01/30 06:38:00;;;;;;;;;;;;;;;9.16;68.18;98415.09;4247553;27;5653;-67
2024/01/30 06:40:04;;;;;;;;;;;;;;;9.22;67.95;98409.25;4247033;27;5682;-66
2024/01/30 06:42:08;;;;;;;;;;;;;;;9.28;67.69;98411.28;4248245;27;5684;-67
2024/01/30 06:44:11;;;;;;;;;;;;;;;9.33;67.67;98419.63;4248307;27;5724;-66
2024/01/30 06:46:14;;;;;;;;;;;;;;;9.37;67.28;98412.25;4248139;27;5827;-67
2024/01/30 06:48:17;;;;;;;;;;;;;;;9.41;67.53;98420.72;4248341;27;5736;-68
2024/01/30 06:50:21;;;;;;;;;;;;;;;9.43;67.32;98421.41;4246967;27;5737;-67
2024/01/30 06:52:24;;;;;;;;;;;;;;;9.47;66.95;98425.41;4247501;27;5680;-67
2024/01/30 06:54:26;;;;;;;;;;;;;;;9.49;67.05;98421.63;4242046;27;6330;-67
2024/01/30 06:56:30;;;;;;;;;;;;;;;9.51;66.54;98426.75;4247714;27;5708;-68
2024/01/30 06:58:34;;;;;;;;;;;;;;;9.54;66.48;98435.22;4247262;27;5806;-68
2024/01/30 07:00:37;;;;;;;;;;;;;;;9.55;66.64;98430.78;4238254;27;5645;-68
2024/01/30 07:02:40;;;;;;;;;;;;;;;9.56;66.37;98435.91;4237487;27;5649;-63
2024/01/30 07:04:43;;;;;;;;;;;;;;;9.57;66.36;98434.09;4242628;27;5756;-63
2024/01/30 07:06:48;;;;;;;;;;;;;;;9.59;66.34;98435.63;4243637;27;5786;-63
2024/01/30 07:08:51;;;;;;;;;;;;;;;9.60;66.03;98439.91;4241456;27;5799;-63
2024/01/30 07:10:55;;;;;;;;;;;;;;;9.62;66.23;98443.22;4232731;27;5667;-63
2024/01/30 07:13:05;;;;;;;;;;;;;;;9.63;66.09;98438.81;4238394;27;5756;-63
2024/01/30 07:15:10;;;;;;;;;;;;;;;9.64;65.86;98440.47;4239945;27;6029;-63
2024/01/30 07:17:13;;;;;;;;;;;;;;;9.66;65.85;98445.59;4239084;27;5765;-63
2024/01/30 07:19:16;;;;;;;;;;;;;;;9.68;65.69;98449.75;4246624;27;5645;-63
2024/01/30 07:21:21;;;;;;;;;;;;;;;9.71;65.82;98449.44;4242960;27;5711;-63
2024/01/30 07:23:24;;;;;;;;;;;;;;;9.71;65.65;98451.25;4237150;27;5653;-64
2024/01/30 07:25:29;;;;;;;;;;;;;;;9.72;65.60;98445.81;4242006;27;5638;-64
2024/01/30 07:27:31;;;;;;;;;;;;;;;9.73;65.40;98451.94;4227024;28;5710;-63
2024/01/30 07:29:34;;;;;;;;;;;;;;;9.72;65.22;98461.66;4226725;28;5771;-63
2024/01/30 07:31:37;;;;;;;;;;;;;;;9.73;65.29;98462.50;4235245;28;5654;-63
2024/01/30 07:33:41;;;;;;;;;;;;;;;9.74;65.34;98459.75;4235699;28;5744;-63
2024/01/30 07:35:44;;;;;;;;;;;;;;;9.75;65.17;98461.41;4232319;28;5641;-63
2024/01/30 07:37:47;;;;;;;;;;;;;;;9.77;65.16;98461.25;4235076;28;5657;-62
2024/01/30 07:39:50;;;;;;;;;;;;;;;9.78;65.18;98463.75;4234609;28;5657;-63
2024/01/30 07:41:54;;;;;;;;;;;;;;;9.82;65.13;98465.09;4233539;28;5656;-63
2024/01/30 07:43:56;;;;;;;;;;;;;;;9.85;64.96;98464.81;4222711;28;5749;-63
2024/01/30 07:46:00;;;;;;;;;;;;;;;9.86;64.83;98469.13;4235725;28;5852;-63
2024/01/30 07:48:06;;;;;;;;;;;;;;;9.89;65.02;98476.75;4235251;28;5765;-62
2024/01/30 07:50:10;;;;;;;;;;;;;;;9.90;64.79;98483.69;4234717;28;5223;-63
2024/01/30 07:52:12;;;;;;;;;;;;;;;9.92;64.59;98480.91;4234068;28;7809;-62
2024/01/30 07:54:16;;;;;;;;;;;;;;;9.93;64.73;98474.63;4230688;28;5657;-63
2024/01/30 07:56:18;;;;;;;;;;;;;;;9.98;64.47;98474.19;4234513;27;5650;-63
2024/01/30 07:58:23;;;;;;;;;;;;;;;10.00;64.35;98478.34;4229513;28;5678;-63
2024/01/30 08:00:28;;;;;;;;;;;;;;;10.02;64.58;98489.59;4227412;28;5823;-64
2024/01/30 08:02:32;;;;;;;;;;;;;;;10.04;64.50;98486.81;4233747;28;5736;-63
2024/01/30 08:04:37;;;;;;;;;;;;;;;10.04;64.48;98490.28;4227902;28;5243;-63
2024/01/30 08:06:40;;;;;;;;;;;;;;;10.06;64.30;98484.84;4234425;28;7679;-63
2024/01/30 08:08:46;;;;;;;;;;;;;;;10.09;64.25;98489.84;4223495;28;5757;-64
2024/01/30 08:10:50;;;;;;;;;;;;;;;10.09;63.99;98493.31;4230160;28;5831;-64
2024/01/30 08:12:52;;;;;;;;;;;;;;;10.11;64.36;98487.88;4235316;28;5650;-64
2024/01/30 08:14:55;;;;;;;;;;;;;;;10.12;64.03;98492.19;4230700;28;5629;-64
2024/01/30 08:16:58;;;;;;;;;;;;;;;10.13;63.99;98491.22;4227998;28;5682;-64
2024/01/30 08:19:01;;;;;;;;;;;;;;;10.15;64.19;98491.88;4235836;28;5808;-64
2024/01/30 08:21:05;;;;;;;;;;;;;;;10.15;63.97;98490.06;4235174;28;6349;-64
2024/01/30 08:23:10;;;;;;;;;;;;;;;10.17;63.85;98496.03;4235464;28;5777;-64
2024/01/30 08:25:13;;;;;;;;;;;;;;;10.19;64.02;98495.88;4235112;28;5824;-64
2024/01/30 08:27:15;;;;;;;;;;;;;;;10.20;64.07;98500.22;4234620;28;5649;-64
2024/01/30 08:29:18;;;;;;;;;;;;;;;10.20;63.84;98497.56;4232610;27;5653;-64
2024/01/30 08:31:21;;;;;;;;;;;;;;;10.20;63.67;98492.28;4235069;27;5652;-64
2024/01/30 08:33:25;;;;;;;;;;;;;;;10.21;63.71;98491.31;4233672;28;5640;-64
2024/01/30 08:35:31;;;;;;;;;;;;;;;10.20;63.69;98490.47;4228862;28;5668;-63
2024/01/30 08:37:36;;;;;;;;;;;;;;;10.23;63.34;98489.38;4234561;28;5641;-64
2024/01/30 08:39:41;;;;;;;;;;;;;;;10.23;63.47;98494.66;4233786;27;5120;-64
2024/01/30 08:41:44;;;;;;;;;;;;;;;10.23;63.21;98489.38;4235421;28;5669;-64
2024/01/30 08:43:47;;;;;;;;;;;;;;;10.23;63.43;98493.81;4231164;28;5817;-64
2024/01/30 08:45:50;;;;;;;;;;;;;;;10.23;63.39;98493.81;4228513;28;5704;-64
2024/01/30 08:47:54;;;;;;;;;;;;;;;10.23;63.38;98493.81;4235463;28;5809;-64
2024/01/30 08:49:57;;;;;;;;;;;;;;;10.22;62.96;98497.44;4235172;28;5732;-63
2024/01/30 08:52:00;;;;;;;;;;;;;;;10.23;63.05;98496.47;4233820;28;5649;-63
2024/01/30 08:54:03;;;;;;;;;;;;;;;10.23;63.33;98499.94;4221931;28;5736;-63
2024/01/30 08:56:08;;;;;;;;;;;;;;;10.24;63.07;98498.97;4230157;28;5783;-63
2024/01/30 08:58:11;;;;;;;;;;;;;;;10.25;63.20;98490.03;4234446;28;5108;-63
2024/01/30 09:00:15;;;;;;;;;;;;;;;10.28;63.22;98502.13;4233206;28;5720;-63
2024/01/30 09:02:19;;;;;;;;;;;;;;;10.28;63.28;98500.31;4222916;28;5725;-63
2024/01/30 09:04:22;;;;;;;;;;;;;;;10.31;62.98;98501.84;4233069;28;5679;-62
2024/01/30 09:06:28;;;;;;;;;;;;;;;10.31;62.97;98502.69;4233033;28;5637;-63
2024/01/30 09:08:31;;;;;;;;;;;;;;;10.31;62.73;98509.78;4230382;28;5745;-63
2024/01/30 09:10:36;;;;;;;;;;;;;;;10.29;62.81;98504.59;4231781;28;5649;-63
2024/01/30 09:12:39;;;;;;;;;;;;;;;10.29;63.06;98501.13;4224050;28;5780;-63
2024/01/30 09:14:41;;;;;;;;;;;;;;;10.30;62.76;98506.28;4232132;28;5728;-63
2024/01/30 09:16:45;;;;;;;;;;;;;;;10.30;62.84;98500.97;4230220;28;5656;-63
2024/01/30 09:18:48;;;;;;;;;;;;;;;10.31;62.50;98502.69;4232911;28;5785;-63
2024/01/30 09:20:51;;;;;;;;;;;;;;;10.32;62.53;98495.56;4234603;27;5732;-63
2024/01/30 09:22:54;;;;;;;;;;;;;;;10.31;62.65;98494.75;4234545;28;5636;-63
2024/01/30 09:24:57;;;;;;;;;;;;;;;10.29;62.46;98494.03;4221808;28;5778;-63
2024/01/30 09:27:01;;;;;;;;;;;;;;;10.30;62.47;98500.16;4228712;28;5657;-63
2024/01/30 09:29:05;;;;;;;;;;;;;;;10.28;62.27;98499.47;4232688;28;5619;-63
2024/01/30 09:31:11;;;;;;;;;;;;;;;10.31;62.36;98501.84;4226793;28;6337;-63
2024/01/30 09:33:14;;;;;;;;;;;;;;;10.33;62.58;98513.09;4234427;28;5445;-63
2024/01/30 09:35:17;;;;;;;;;;;;;;;10.34;62.20;98515.59;4234232;28;7347;-63
2024/01/30 09:37:20;;;;;;;;;;;;;;;10.36;62.18;98510.16;4234526;28;5642;-63
2024/01/30 09:39:24;;;;;;;;;;;;;;;10.38;62.21;98518.75;4232223;27;5637;-63
2024/01/30 09:41:28;;;;;;;;;;;;;;;10.38;62.07;98511.66;4233530;28;6363;-63
2024/01/30 09:43:35;;;;;;;;;;;;;;;10.39;62.25;98510.66;4232044;28;5892;-63
2024/01/30 09:45:40;;;;;;;;;;;;;;;10.40;62.18;98511.50;4233672;28;5727;-64
2024/01/30 09:47:44;;;;;;;;;;;;;;;10.41;62.03;98513.16;4232449;28;5857;-63
2024/01/30 09:49:49;;;;;;;;;;;;;;;10.43;62.22;98517.34;4233665;28;5735;-64
2024/01/30 09:51:52;;;;;;;;;;;;;;;10.44;62.31;98513.72;4230421;28;5838;-64
2024/01/30 09:53:56;;;;;;;;;;;;;;;10.46;62.14;98516.19;4233306;28;7679;-63
2024/01/30 09:55:59;;;;;;;;;;;;;;;10.47;62.19;98520.50;4233410;28;5644;-63
2024/01/30 09:58:03;;;;;;;;;;;;;;;10.50;62.09;98517.53;4233891;28;5928;-63
2024/01/30 10:00:08;;;;;;;;;;;;;;;10.52;61.77;98514.75;4233854;27;5677;-63
2024/01/30 10:02:12;;;;;;;;;;;;;;;10.53;61.68;98519.06;4233933;28;5765;-64
2024/01/30 10:04:15;;;;;;;;;;;;;;;10.53;61.94;98511.13;4232841;28;5657;-63
2024/01/30 10:06:18;;;;;;;;;;;;;;;10.55;61.72;98519.75;4233155;28;5666;-63
2024/01/30 10:08:23;;;;;;;;;;;;;;;10.55;61.87;98514.47;4228348;28;5823;-63
2024/01/30 10:10:27;;;;;;;;;;;;;;;10.56;61.83;98526.72;4225208;28;5650;-63
2024/01/30 10:12:31;;;;;;;;;;;;;;;10.56;61.75;98521.41;4226694;28;5667;-63
2024/01/30 10:14:34;;;;;;;;;;;;;;;10.56;61.59;98516.13;4230251;28;5661;-64
2024/01/30 10:16:39;;;;;;;;;;;;;;;10.55;61.62;98525.88;4233178;28;5836;-63
2024/01/30 10:18:41;;;;;;;;;;;;;;;10.55;61.53;98511.81;4219033;28;5675;-63
2024/01/30 10:20:47;;;;;;;;;;;;;;;10.54;61.66;98523.38;4219737;28;5686;-63
2024/01/30 10:22:50;;;;;;;;;;;;;;;10.53;61.79;98513.75;4223173;28;5728;-63
2024/01/30 10:24:52;;;;;;;;;;;;;;;10.55;61.74;98525.06;4230362;28;5741;-63
2024/01/30 10:26:55;;;;;;;;;;;;;;;10.55;61.65;98519.75;4233740;28;6338;-63
2024/01/30 10:28:58;;;;;;;;;;;;;;;10.55;61.71;98512.66;4233833;28;5665;-63
2024/01/30 10:31:03;;;;;;;;;;;;;;;10.57;61.83;98507.22;4233494;28;6260;-63
2024/01/30 10:33:10;;;;;;;;;;;;;;;10.57;61.42;98505.41;4232048;28;5748;-62
2024/01/30 10:35:14;;;;;;;;;;;;;;;10.56;61.69;98503.75;4221800;28;5644;-63
2024/01/30 10:37:20;;;;;;;;;;;;;;;10.58;61.44;98504.41;4233056;28;5649;-63
2024/01/30 10:39:24;;;;;;;;;;;;;;;10.59;61.46;98511.34;4231958;28;5645;-63
2024/01/30 10:41:28;;;;;;;;;;;;;;;10.61;61.40;98508.56;4233706;28;5751;-63
2024/01/30 10:43:34;;;;;;;;;;;;;;;10.62;61.59;98504.94;4221723;28;5754;-63
2024/01/30 10:45:41;;;;;;;;;;;;;;;10.62;61.62;98502.28;4232201;28;5645;-63
2024/01/30 10:47:49;;;;;;;;;;;;;;;10.63;61.46;98507.41;4231738;28;5816;-63
2024/01/30 10:49:54;;;;;;;;;;;;;;;10.65;61.58;98507.28;4227221;28;5633;-62
2024/01/30 10:51:58;;;;;;;;;;;;;;;10.66;61.41;98503.66;4229287;28;5637;-62
2024/01/30 10:54:03;;;;;;;;;;;;;;;10.68;61.57;98506.97;4231014;28;5862;-63
2024/01/30 10:56:07;;;;;;;;;;;;;;;10.71;61.27;98504.03;4233461;28;5662;-63
2024/01/30 10:58:11;;;;;;;;;;;;;;;10.73;61.67;98491.47;4232437;28;5641;-62
2024/01/30 11:00:16;;;;;;;;;;;;;;;10.74;61.42;98490.50;4222736;28;6633;-63
2024/01/30 11:02:20;;;;;;;;;;;;;;;10.77;61.46;98498.13;4229524;28;5666;-63
2024/01/30 11:04:25;;;;;;;;;;;;;;;10.79;61.51;98488.22;4224782;28;5724;-63
2024/01/30 11:06:29;;;;;;;;;;;;;;;10.80;61.11;98489.88;4235207;28;5711;-63
2024/01/30 11:08:34;;;;;;;;;;;;;;;10.80;61.44;98487.25;4231005;28;5811;-63
2024/01/30 11:10:45;;;;;;;;;;;;;;;10.81;61.54;98491.53;4227110;27;5757;-63
2024/01/30 11:12:50;;;;;;;;;;;;;;;10.82;61.48;98479.16;4228734;28;5645;-63
2024/01/30 11:15:03;;;;;;;;;;;;;;;10.85;61.27;98481.47;4233179;28;5653;-62
2024/01/30 11:17:06;;;;;;;;;;;;;;;10.87;61.38;98482.16;4236326;27;5724;-64
2024/01/30 11:19:12;;;;;;;;;;;;;;;10.89;61.21;98481.03;4236380;28;5665;-64
2024/01/30 11:21:15;;;;;;;;;;;;;;;10.91;61.56;98478.22;4236506;28;5633;-64
2024/01/30 11:23:22;;;;;;;;;;;;;;;10.92;61.28;98478.06;4236076;28;5657;-64
2024/01/30 11:25:26;;;;;;;;;;;;;;;10.96;61.34;98479.41;4236030;28;5750;-64
2024/01/30 11:27:31;;;;;;;;;;;;;;;10.99;61.15;98481.78;4236113;28;5749;-63
2024/01/30 11:29:36;;;;;;;;;;;;;;;11.00;61.08;98477.31;4236135;28;5645;-63
2024/01/30 11:31:39;;;;;;;;;;;;;;;11.01;61.07;98478.97;4236038;28;5649;-64
2024/01/30 11:33:42;;;;;;;;;;;;;;;11.03;61.29;98479.66;4235995;28;5642;-63
2024/01/30 11:35:47;;;;;;;;;;;;;;;11.03;61.08;98484.94;4236130;28;5649;-63
2024/01/30 11:37:49;;;;;;;;;;;;;;;11.03;61.23;98483.13;4235819;28;5685;-63
2024/01/30 11:39:54;;;;;;;;;;;;;;;11.04;61.34;98484.78;4236029;28;5645;-63
2024/01/30 11:41:59;;;;;;;;;;;;;;;11.04;61.11;98476.00;4236087;28;5720;-63
2024/01/30 11:44:04;;;;;;;;;;;;;;;11.05;61.08;98475.84;4232513;28;5716;-63
2024/01/30 11:46:10;;;;;;;;;;;;;;;11.07;61.41;98483.63;4236057;28;5708;-62
2024/01/30 11:48:13;;;;;;;;;;;;;;;11.07;61.07;98473.88;4236040;28;5708;-64
2024/01/30 11:50:16;;;;;;;;;;;;;;;11.08;61.08;98480.00;4235692;28;5654;-64
2024/01/30 11:52:20;;;;;;;;;;;;;;;11.07;60.94;98476.53;4235806;28;5757;-63
2024/01/30 11:54:24;;;;;;;;;;;;;;;11.09;61.42;98479.84;4235742;28;5807;-63
2024/01/30 11:56:29;;;;;;;;;;;;;;;11.11;60.79;98469.13;4235939;28;5741;-63
2024/01/30 11:58:32;;;;;;;;;;;;;;;11.12;61.15;98464.66;4236029;27;5755;-62
2024/01/30 12:00:36;;;;;;;;;;;;;;;11.12;60.95;98467.31;4227174;28;5778;-63
2024/01/30 12:02:40;;;;;;;;;;;;;;;11.14;60.91;98465.31;4218923;28;5762;-63
2024/01/30 12:04:44;;;;;;;;;;;;;;;11.13;60.77;98464.50;4223386;28;6506;-63
2024/01/30 12:06:52;;;;;;;;;;;;;;;11.15;60.89;98453.75;4235647;28;5637;-63
2024/01/30 12:08:58;;;;;;;;;;;;;;;11.18;61.18;98453.44;4235955;28;5649;-63
2024/01/30 12:11:05;;;;;;;;;;;;;;;11.19;60.98;98450.63;4234257;28;5822;-63
2024/01/30 12:13:10;;;;;;;;;;;;;;;11.23;60.83;98453.81;4235417;28;5641;-63
2024/01/30 12:15:14;;;;;;;;;;;;;;;11.23;60.87;98448.50;4235162;28;5728;-63
2024/01/30 12:17:24;;;;;;;;;;;;;;;11.24;60.81;98447.53;4235163;28;5716;-63
2024/01/30 12:19:28;;;;;;;;;;;;;;;11.23;60.71;98441.41;4235400;28;5645;-65
2024/01/30 12:21:31;;;;;;;;;;;;;;;11.20;60.54;98443.50;4235179;28;5756;-63
2024/01/30 12:23:35;;;;;;;;;;;;;;;11.18;60.58;98437.53;4235234;28;6729;-62
2024/01/30 12:25:38;;;;;;;;;;;;;;;11.16;60.49;98436.88;4224470;28;5872;-64
2024/01/30 12:27:45;;;;;;;;;;;;;;;11.11;60.75;98436.53;4226527;28;5684;-65
2024/01/30 12:29:55;;;;;;;;;;;;;;;11.09;60.98;98434.84;4228713;28;5728;-65
2024/01/30 12:31:58;;;;;;;;;;;;;;;11.09;60.99;98423.44;4234219;28;6367;-65
2024/01/30 12:34:02;;;;;;;;;;;;;;;11.11;60.62;98433.88;4233122;28;5875;-65
2024/01/30 12:36:05;;;;;;;;;;;;;;;11.13;60.71;98429.25;4222766;28;5787;-65
2024/01/30 12:38:09;;;;;;;;;;;;;;;11.12;60.62;98422.31;4230383;28;5712;-65
2024/01/30 12:40:14;;;;;;;;;;;;;;;11.10;60.54;98414.53;4226325;28;5108;-65
2024/01/30 12:42:17;;;;;;;;;;;;;;;11.07;60.74;98423.59;4235493;28;5645;-63
2024/01/30 12:44:20;;;;;;;;;;;;;;;11.11;61.07;98423.28;4234334;28;5645;-63
2024/01/30 12:46:29;;;;;;;;;;;;;;;11.16;60.72;98419.19;4234243;28;5709;-63
2024/01/30 12:48:31;;;;;;;;;;;;;;;11.20;60.73;98414.38;4229899;28;5846;-62
2024/01/30 12:50:35;;;;;;;;;;;;;;;11.22;60.98;98418.56;4233731;28;5709;-63
2024/01/30 12:52:38;;;;;;;;;;;;;;;11.25;60.61;98414.75;4234242;28;6484;-63
2024/01/30 12:54:42;;;;;;;;;;;;;;;11.27;60.79;98404.84;4227616;28;5645;-64
2024/01/30 12:56:44;;;;;;;;;;;;;;;11.31;60.55;98414.13;4229593;28;6246;-63
2024/01/30 12:58:49;;;;;;;;;;;;;;;11.33;60.54;98410.34;4225939;28;5637;-64
2024/01/30 13:00:55;;;;;;;;;;;;;;;11.34;60.43;98413.81;4229335;28;5761;-63
2024/01/30 13:02:59;;;;;;;;;;;;;;;11.37;60.67;98410.84;4231422;28;5693;-63
2024/01/30 13:05:04;;;;;;;;;;;;;;;11.39;60.46;98403.56;4234705;28;5656;-63
2024/01/30 13:07:07;;;;;;;;;;;;;;;11.42;60.48;98407.72;4234721;28;5741;-63
2024/01/30 13:09:10;;;;;;;;;;;;;;;11.43;60.52;98404.91;4232649;28;5857;-63
2024/01/30 13:11:13;;;;;;;;;;;;;;;11.45;60.47;98400.31;4234115;28;5753;-63
2024/01/30 13:13:23;;;;;;;;;;;;;;;11.46;60.48;98404.59;4231306;28;5373;-63
2024/01/30 13:15:27;;;;;;;;;;;;;;;11.45;60.25;98400.31;4227458;28;7714;-63
2024/01/30 13:17:29;;;;;;;;;;;;;;;11.48;60.11;98404.44;4224319;28;5653;-63
2024/01/30 13:19:34;;;;;;;;;;;;;;;11.48;60.40;98399.97;4218870;28;5769;-63
2024/01/30 13:21:36;;;;;;;;;;;;;;;11.49;59.96;98396.34;4229094;28;5649;-63
2024/01/30 13:23:39;;;;;;;;;;;;;;;11.51;59.91;98394.34;4232582;28;5782;-63
2024/01/30 13:25:41;;;;;;;;;;;;;;;11.52;59.87;98396.00;4225232;28;5649;-63
2024/01/30 13:27:44;;;;;;;;;;;;;;;11.53;59.84;98395.00;4226447;28;5772;-63
2024/01/30 13:29:46;;;;;;;;;;;;;;;11.52;59.81;98388.06;4234464;28;5638;-63
2024/01/30 13:31:49;;;;;;;;;;;;;;;11.54;59.82;98396.66;4226043;28;5637;-63
2024/01/30 13:33:53;;;;;;;;;;;;;;;11.53;60.10;98400.31;4234184;27;5756;-64
2024/01/30 13:35:58;;;;;;;;;;;;;;;11.53;60.06;98400.31;4224339;28;5662;-64
2024/01/30 13:38:01;;;;;;;;;;;;;;;11.52;59.99;98393.34;4221301;28;5741;-63
2024/01/30 13:40:07;;;;;;;;;;;;;;;11.51;60.08;98402.28;4228124;28;5700;-64
2024/01/30 13:42:13;;;;;;;;;;;;;;;11.51;60.08;98397.00;4233427;28;5732;-63
2024/01/30 13:44:17;;;;;;;;;;;;;;;11.53;59.87;98399.47;4233727;28;6337;-63
2024/01/30 13:46:19;;;;;;;;;;;;;;;11.54;60.20;98401.97;4232675;28;5736;-63
2024/01/30 13:48:22;;;;;;;;;;;;;;;11.55;60.15;98398.34;4233874;28;5645;-63
2024/01/30 13:50:26;;;;;;;;;;;;;;;11.55;59.99;98401.00;4233086;27;5642;-63
2024/01/30 13:52:30;;;;;;;;;;;;;;;11.55;59.72;98398.34;4231754;28;5638;-63
2024/01/30 13:54:41;;;;;;;;;;;;;;;11.54;59.87;98396.66;4232548;28;5780;-63
2024/01/30 13:56:44;;;;;;;;;;;;;;;11.58;59.83;98398.03;4232673;28;5661;-64
2024/01/30 13:58:47;;;;;;;;;;;;;;;11.56;59.79;98389.41;4233854;28;5649;-63
2024/01/30 14:00:50;;;;;;;;;;;;;;;11.59;59.73;98399.69;4228687;27;5668;-63
2024/01/30 14:02:55;;;;;;;;;;;;;;;11.59;59.88;98393.56;4232061;28;5740;-64
2024/01/30 14:04:58;;;;;;;;;;;;;;;11.62;59.59;98399.34;4230735;28;5747;-63
2024/01/30 14:07:02;;;;;;;;;;;;;;;11.62;59.72;98402.00;4233384;28;7682;-63
2024/01/30 14:09:10;;;;;;;;;;;;;;;11.63;59.57;98401.00;4231730;28;5173;-63
2024/01/30 14:11:13;;;;;;;;;;;;;;;11.65;59.89;98399.03;4233832;28;5749;-64
2024/01/30 14:13:16;;;;;;;;;;;;;;;11.66;59.46;98390.13;4232453;28;5802;-63
2024/01/30 14:15:20;;;;;;;;;;;;;;;11.65;59.89;98393.72;4232653;28;5095;-64
2024/01/30 14:17:31;;;;;;;;;;;;;;;11.66;59.82;98397.22;4232578;28;5630;-63
2024/01/30 14:19:36;;;;;;;;;;;;;;;11.68;59.84;98403.19;4225866;27;5627;-63
2024/01/30 14:21:39;;;;;;;;;;;;;;;11.69;59.46;98398.72;4233190;28;5710;-63
2024/01/30 14:23:44;;;;;;;;;;;;;;;11.70;59.86;98400.38;4216642;28;5844;-63
2024/01/30 14:25:48;;;;;;;;;;;;;;;11.71;59.38;98402.88;4233632;28;5652;-63
2024/01/30 14:27:53;;;;;;;;;;;;;;;11.71;59.31;98394.91;4231914;28;5604;-63
2024/01/30 14:29:56;;;;;;;;;;;;;;;11.71;59.32;98392.28;4223820;28;5723;-63
2024/01/30 14:31:59;;;;;;;;;;;;;;;11.72;59.14;98393.09;4230206;28;5645;-63
2024/01/30 14:34:02;;;;;;;;;;;;;;;11.68;58.82;98387.31;4227629;28;5154;-63
2024/01/30 14:36:07;;;;;;;;;;;;;;;11.62;58.46;98390.59;4226854;28;5645;-63
2024/01/30 14:38:10;;;;;;;;;;;;;;;11.59;58.89;98393.56;4235700;28;5653;-63
2024/01/30 14:40:14;;;;;;;;;;;;;;;11.58;59.00;98400.69;4219904;28;6428;-63
2024/01/30 14:42:18;;;;;;;;;;;;;;;11.59;59.18;98398.84;4220141;28;5674;-63
2024/01/30 14:44:21;;;;;;;;;;;;;;;11.59;59.12;98397.03;4230473;28;5753;-63
2024/01/30 14:46:24;;;;;;;;;;;;;;;11.58;59.08;98392.72;4233203;28;5144;-63
2024/01/30 14:48:27;;;;;;;;;;;;;;;11.58;58.81;98394.56;4220059;28;7663;-63
2024/01/30 14:50:30;;;;;;;;;;;;;;;11.56;58.70;98392.06;4234712;28;5703;-62
2024/01/30 14:52:34;;;;;;;;;;;;;;;11.55;58.65;98393.06;4235420;28;5657;-62
2024/01/30 14:54:37;;;;;;;;;;;;;;;11.56;58.62;98393.88;4236758;28;5735;-62
2024/01/30 14:56:41;;;;;;;;;;;;;;;11.54;58.83;98386.06;4233735;28;5682;-62
2024/01/30 14:58:56;;;;;;;;;;;;;;;11.55;58.90;98387.75;4196869;28;5753;-62
2024/01/30 15:00:58;;;;;;;;;;;;;;;11.56;58.94;98389.41;4200169;28;5637;-62
2024/01/30 15:03:02;;;;;;;;;;;;;;;11.56;58.62;98385.94;4197427;28;6148;-62
2024/01/30 15:05:05;;;;;;;;;;;;;;;11.58;58.74;98392.72;4200112;28;5757;-62
2024/01/30 15:07:08;;;;;;;;;;;;;;;11.57;58.72;98384.94;4198039;28;5653;-62
2024/01/30 15:09:14;;;;;;;;;;;;;;;11.59;58.68;98394.38;4198005;28;6339;-63
2024/01/30 15:11:18;;;;;;;;;;;;;;;11.61;58.75;98391.56;4191687;28;5777;-63
2024/01/30 15:13:21;;;;;;;;;;;;;;;11.61;58.49;98395.06;4200124;28;5658;-63
2024/01/30 15:15:28;;;;;;;;;;;;;;;11.62;58.46;98387.94;4198732;28;5729;-63
2024/01/30 15:17:31;;;;;;;;;;;;;;;11.63;58.36;98400.19;4215740;28;5777;-63
2024/01/30 15:19:34;;;;;;;;;;;;;;;11.62;58.59;98396.72;4233494;28;5844;-63
2024/01/30 15:21:37;;;;;;;;;;;;;;;11.61;58.30;98405.66;4231131;28;5666;-63
2024/01/30 15:23:40;;;;;;;;;;;;;;;11.61;58.38;98404.81;4235564;28;5645;-63
2024/01/30 15:25:43;;;;;;;;;;;;;;;11.61;58.56;98407.47;4233442;28;5666;-63
2024/01/30 15:27:45;;;;;;;;;;;;;;;11.61;58.14;98405.66;4233728;28;5776;-62
2024/01/30 15:29:48;;;;;;;;;;;;;;;11.60;58.00;98400.50;4234830;28;5752;-62
2024/01/30 15:31:52;;;;;;;;;;;;;;;11.59;58.12;98404.97;4233264;28;5723;-63
2024/01/30 15:33:57;;;;;;;;;;;;;;;11.58;57.97;98405.16;4235130;28;5637;-63
2024/01/30 15:36:01;;;;;;;;;;;;;;;11.55;57.91;98398.34;4227396;28;5816;-63
2024/01/30 15:38:08;;;;;;;;;;;;;;;11.55;57.69;98402.78;4232615;28;5728;-63
2024/01/30 15:40:12;;;;;;;;;;;;;;;11.55;57.75;98400.16;4225905;28;5645;-63
2024/01/30 15:42:16;;;;;;;;;;;;;;;11.53;57.76;98402.97;4234140;28;5815;-63
2024/01/30 15:44:19;;;;;;;;;;;;;;;11.54;57.57;98386.06;4235209;27;5600;-62
2024/01/30 15:46:23;;;;;;;;;;;;;;;11.54;57.37;98386.06;4240600;27;5641;-63
2024/01/30 15:48:28;;;;;;;;;;;;;;;11.54;57.49;98391.38;4235906;27;5644;-63
2024/01/30 15:50:31;;;;;;;;;;;;;;;11.52;57.49;98388.06;4236056;28;5812;-63
2024/01/30 15:52:34;;;;;;;;;;;;;;;11.52;57.28;98396.00;4234371;28;5653;-63
2024/01/30 15:54:38;;;;;;;;;;;;;;;11.52;57.68;98390.72;4233579;27;6429;-63
2024/01/30 15:56:41;;;;;;;;;;;;;;;11.54;57.51;98390.53;4237103;27;5736;-63
2024/01/30 15:58:49;;;;;;;;;;;;;;;11.54;57.36;98386.06;4234234;28;5716;-63
2024/01/30 16:00:52;;;;;;;;;;;;;;;11.56;57.59;98391.25;4232542;28;5821;-63
2024/01/30 16:02:57;;;;;;;;;;;;;;;11.54;57.46;98395.84;4233662;27;5966;-63
2024/01/30 16:05:02;;;;;;;;;;;;;;;11.53;57.42;98395.00;4232997;28;5640;-63
2024/01/30 16:07:05;;;;;;;;;;;;;;;11.54;57.16;98401.97;4236013;27;5649;-63
2024/01/30 16:09:08;;;;;;;;;;;;;;;11.53;57.47;98399.47;4234243;28;5649;-63
2024/01/30 16:11:12;;;;;;;;;;;;;;;11.52;56.98;98393.34;4235255;28;5792;-63
2024/01/30 16:13:15;;;;;;;;;;;;;;;11.51;57.14;98393.53;4235086;28;5785;-63
2024/01/30 16:15:19;;;;;;;;;;;;;;;11.51;57.01;98397.00;4235116;28;5700;-63
2024/01/30 16:17:22;;;;;;;;;;;;;;;11.52;57.29;98401.31;4234486;28;5642;-63
2024/01/30 16:19:25;;;;;;;;;;;;;;;11.53;56.99;98399.47;4235666;28;5790;-62
2024/01/30 16:21:30;;;;;;;;;;;;;;;11.54;57.21;98404.63;4234205;28;5638;-63
2024/01/30 16:23:33;;;;;;;;;;;;;;;11.55;57.24;98406.31;4234512;28;5741;-63
2024/01/30 16:25:36;;;;;;;;;;;;;;;11.53;56.91;98404.78;4235465;28;5646;-63
2024/01/30 16:27:39;;;;;;;;;;;;;;;11.54;57.09;98411.72;4231218;27;5964;-63
2024/01/30 16:29:42;;;;;;;;;;;;;;;11.53;57.06;98410.91;4233313;28;5642;-62
2024/01/30 16:31:46;;;;;;;;;;;;;;;11.52;57.08;98417.19;4234199;28;5751;-62
2024/01/30 16:33:49;;;;;;;;;;;;;;;11.53;57.10;98418.03;4232893;28;5768;-62
2024/01/30 16:35:52;;;;;;;;;;;;;;;11.52;56.89;98425.13;4233381;28;5075;-63
2024/01/30 16:37:57;;;;;;;;;;;;;;;11.51;56.96;98431.44;4233747;27;7699;-62
2024/01/30 16:40:00;;;;;;;;;;;;;;;11.49;57.02;98428.13;4228914;28;6268;-62
2024/01/30 16:42:06;;;;;;;;;;;;;;;11.49;56.81;98433.41;4234076;28;5657;-62
2024/01/30 16:44:09;;;;;;;;;;;;;;;11.48;57.12;98436.22;4233991;28;5653;-62
2024/01/30 16:46:11;;;;;;;;;;;;;;;11.46;57.10;98441.69;4231193;28;5711;-61
2024/01/30 16:48:17;;;;;;;;;;;;;;;11.46;56.68;98446.97;4231314;28;5524;-62
2024/01/30 16:50:21;;;;;;;;;;;;;;;11.44;56.78;98435.72;4227371;27;5861;-62
2024/01/30 16:52:25;;;;;;;;;;;;;;;11.43;56.81;98441.16;4232688;27;5837;-62
2024/01/30 16:54:29;;;;;;;;;;;;;;;11.40;56.92;98442.28;4234359;27;5633;-71
2024/01/30 16:56:32;;;;;;;;;;;;;;;11.38;56.85;98445.09;4229671;27;5665;-68
2024/01/30 16:58:35;;;;;;;;;;;;;;;11.37;57.06;98447.91;4229927;28;7826;-67
2024/01/30 17:00:38;;;;;;;;;;;;;;;11.35;56.80;98447.25;4233643;28;5645;-72
2024/01/30 17:02:41;;;;;;;;;;;;;;;11.34;57.09;98454.38;4229923;28;5819;-71
2024/01/30 17:04:45;;;;;;;;;;;;;;;11.33;57.04;98452.72;4230990;28;5661;-71
2024/01/30 17:06:48;;;;;;;;;;;;;;;11.32;56.87;98450.19;4234091;27;6233;-71
2024/01/30 17:08:51;;;;;;;;;;;;;;;11.31;57.10;98449.38;4221248;28;5684;-71
2024/01/30 17:10:55;;;;;;;;;;;;;;;11.30;56.98;98453.00;4229068;28;5776;-71
2024/01/30 17:12:59;;;;;;;;;;;;;;;11.30;56.98;98447.69;4233573;28;5758;-72
2024/01/30 17:15:03;;;;;;;;;;;;;;;11.28;57.05;98446.22;4230859;28;5795;-71
2024/01/30 17:17:06;;;;;;;;;;;;;;;11.25;57.03;98450.00;4230562;28;5637;-71
2024/01/30 17:19:16;;;;;;;;;;;;;;;11.26;56.76;98445.53;4225940;28;5675;-73